createdAt,value
2023-01-01T00:02:20.265Z,100651.44
2023-01-01T00:04:48.138Z,100671.22
2023-01-01T00:07:14.642Z,100656.47
2023-01-01T00:09:59.532Z,100669.41
2023-01-01T00:12:26.038Z,100666.41
2023-01-01T00:14:52.478Z,100655.03
2023-01-01T00:17:18.956Z,100650.63
2023-01-01T00:19:45.551Z,100643.59
2023-01-01T00:22:44.228Z,100652.72
2023-01-01T00:24:58.531Z,100650.28
2023-01-01T00:27:25.090Z,100663.38
2023-01-01T00:29:51.611Z,100647.03
2023-01-01T00:32:22.626Z,100662.88
2023-01-01T00:34:49.845Z,100661.59
2023-01-01T00:37:18.121Z,100661.78
2023-01-01T00:39:45.030Z,100659.97
2023-01-01T00:42:11.559Z,100663.41
2023-01-01T00:44:38.055Z,100665.59
2023-01-01T00:47:04.695Z,100667.81
2023-01-01T00:49:31.190Z,100665.84
2023-01-01T00:51:57.667Z,100659.81
2023-01-01T00:54:24.257Z,100665.22
2023-01-01T00:56:50.722Z,100664.91
2023-01-01T00:59:17.230Z,100657.75
2023-01-01T01:01:43.867Z,100661.50
2023-01-01T01:04:10.479Z,100662.97
2023-01-01T01:06:37.030Z,100664.13
2023-01-01T01:09:04.693Z,100670.53
2023-01-01T01:11:31.229Z,100660.34
2023-01-01T01:13:57.829Z,100671.78
2023-01-01T01:16:30.012Z,100674.22
2023-01-01T01:19:00.224Z,100674.22
2023-01-01T01:21:28.988Z,100670.16
2023-01-01T01:23:58.244Z,100686.84
2023-01-01T01:26:28.755Z,100683.53
2023-01-01T01:28:55.652Z,100681.28
2023-01-01T01:31:24.279Z,100685.03
2023-01-01T01:33:51.110Z,100681.78
2023-01-01T01:36:18.935Z,100688.81
2023-01-01T01:38:46.125Z,100689.44
2023-01-01T01:41:26.884Z,100699.28
2023-01-01T01:44:03.314Z,100694.06
2023-01-01T01:46:34.758Z,100701.22
2023-01-01T01:49:05.946Z,100698.63
2023-01-01T01:51:38.895Z,100711.25
2023-01-01T01:54:12.365Z,100707.44
2023-01-01T01:56:53.986Z,100710.06
2023-01-01T01:59:22.533Z,100707.63
2023-01-01T02:01:49.168Z,100710.25
2023-01-01T02:04:16.876Z,100710.72
2023-01-01T02:06:44.474Z,100708.44
2023-01-01T02:09:11.196Z,100709.06
2023-01-01T02:11:38.013Z,100723.31
2023-01-01T02:14:05.023Z,100712.22
2023-01-01T02:16:37.765Z,100712.69
2023-01-01T02:19:23.005Z,100705.19
2023-01-01T02:22:16.536Z,100712.22
2023-01-01T02:24:51.709Z,100717.59
2023-01-01T02:27:59.707Z,100713.19
2023-01-01T02:30:29.694Z,100715.00
2023-01-01T02:33:05.429Z,100719.25
2023-01-01T02:35:42.273Z,100709.63
2023-01-01T02:38:17.743Z,100715.19
2023-01-01T02:40:48.704Z,100707.34
2023-01-01T02:43:18.934Z,100706.53
2023-01-01T02:45:48.337Z,100713.72
2023-01-01T02:48:44.233Z,100710.13
2023-01-01T02:51:13.821Z,100713.88
2023-01-01T02:53:59.699Z,100711.44
2023-01-01T02:56:47.895Z,100712.25
2023-01-01T02:59:39.613Z,100721.28
2023-01-01T03:02:30.879Z,100723.72
2023-01-01T03:05:19.469Z,100719.28
2023-01-01T03:08:04.495Z,100709.03
2023-01-01T03:10:46.048Z,100714.06
2023-01-01T03:13:26.853Z,100708.03
2023-01-01T03:16:11.325Z,100710.81
2023-01-01T03:18:46.714Z,100707.22
2023-01-01T03:23:50.157Z,100734.53
2023-01-01T03:26:20.261Z,100733.69
2023-01-01T03:28:53.418Z,100736.97
2023-01-01T03:31:24.340Z,100743.31
2023-01-01T03:34:03.861Z,100743.69
2023-01-01T03:36:39.187Z,100745.50
2023-01-01T03:39:12.614Z,100741.88
2023-01-01T03:42:01.852Z,100730.13
2023-01-01T03:44:35.926Z,100730.78
2023-01-01T03:47:05.319Z,100752.53
2023-01-01T03:49:32.888Z,100760.19
2023-01-01T03:52:12.444Z,100757.88
2023-01-01T03:54:59.350Z,100760.50
2023-01-01T03:57:30.096Z,100767.38
2023-01-01T04:00:05.189Z,100763.97
2023-01-01T04:02:57.337Z,100765.09
2023-01-01T04:05:25.588Z,100773.75
2023-01-01T04:07:53.695Z,100770.31
2023-01-01T04:10:21.411Z,100762.50
2023-01-01T04:12:52.127Z,100766.72
2023-01-01T04:15:21.044Z,100768.69
2023-01-01T04:17:47.602Z,100758.25
2023-01-01T04:20:14.435Z,100763.00
2023-01-01T04:22:40.918Z,100767.41
2023-01-01T04:25:08.612Z,100766.91
2023-01-01T04:27:35.388Z,100763.97
2023-01-01T04:30:02.433Z,100761.03
2023-01-01T04:32:29.792Z,100768.06
2023-01-01T04:34:56.407Z,100763.47
2023-01-01T04:37:22.917Z,100748.78
2023-01-01T04:39:49.814Z,100768.69
2023-01-01T04:42:16.334Z,100762.84
2023-01-01T04:44:42.777Z,100775.72
2023-01-01T04:47:09.335Z,100779.16
2023-01-01T04:49:35.989Z,100777.72
2023-01-01T04:52:02.756Z,100781.94
2023-01-01T04:54:29.271Z,100776.53
2023-01-01T04:56:55.723Z,100781.94
2023-01-01T04:59:22.175Z,100792.03
2023-01-01T05:01:48.775Z,100796.13
2023-01-01T05:04:16.672Z,100782.59
2023-01-01T05:06:44.016Z,100795.00
2023-01-01T05:09:11.729Z,100786.19
2023-01-01T05:11:38.437Z,100774.44
2023-01-01T05:14:05.769Z,100792.56
2023-01-01T05:16:37.455Z,100794.53
2023-01-01T05:19:05.433Z,100798.75
2023-01-01T05:21:34.697Z,100803.34
2023-01-01T05:24:04.084Z,100800.75
2023-01-01T05:26:34.688Z,100791.28
2023-01-01T05:29:02.410Z,100802.53
2023-01-01T05:31:34.978Z,100792.91
2023-01-01T05:36:35.307Z,100807.28
2023-01-01T05:39:01.800Z,100813.19
2023-01-01T05:41:28.332Z,100811.19
2023-01-01T05:43:54.814Z,100824.44
2023-01-01T05:46:24.072Z,100815.13
2023-01-01T05:48:51.434Z,100815.94
2023-01-01T05:51:20.873Z,100821.97
2023-01-01T05:53:48.008Z,100827.19
2023-01-01T05:56:15.648Z,100843.53
2023-01-01T05:58:43.075Z,100846.47
2023-01-01T06:01:16.756Z,100829.00
2023-01-01T06:03:43.908Z,100850.72
2023-01-01T06:06:16.397Z,100849.75
2023-01-01T06:08:43.218Z,100849.91
2023-01-01T06:11:12.286Z,100856.78
2023-01-01T06:13:38.831Z,100862.00
2023-01-01T06:16:05.845Z,100871.78
2023-01-01T06:18:34.544Z,100861.16
2023-01-01T06:21:05.212Z,100847.16
2023-01-01T06:23:31.793Z,100852.19
2023-01-01T06:26:07.912Z,100869.66
2023-01-01T06:28:34.456Z,100871.47
2023-01-01T06:31:06.033Z,100878.81
2023-01-01T06:33:33.141Z,100877.84
2023-01-01T06:36:03.730Z,100893.69
2023-01-01T06:38:35.473Z,100894.34
2023-01-01T06:41:05.463Z,100900.72
2023-01-01T06:43:34.441Z,100900.88
2023-01-01T06:46:07.229Z,100908.88
2023-01-01T06:48:36.102Z,100910.19
2023-01-01T06:51:08.208Z,100910.19
2023-01-01T06:53:34.842Z,100925.03
2023-01-01T06:56:01.510Z,100913.59
2023-01-01T06:58:28.180Z,100921.13
2023-01-01T07:00:55.083Z,100923.06
2023-01-01T07:03:21.670Z,100926.34
2023-01-01T07:05:48.282Z,100925.69
2023-01-01T07:08:14.741Z,100927.34
2023-01-01T07:10:41.206Z,100930.91
2023-01-01T07:13:07.712Z,100935.31
2023-01-01T07:15:34.318Z,100944.16
2023-01-01T07:18:00.977Z,100948.38
2023-01-01T07:20:27.467Z,100943.81
2023-01-01T07:22:53.975Z,100958.84
2023-01-01T07:25:20.493Z,100968.81
2023-01-01T07:27:47.065Z,100978.28
2023-01-01T07:30:13.831Z,100983.69
2023-01-01T07:32:40.328Z,100993.16
2023-01-01T07:35:07.327Z,100994.94
2023-01-01T07:37:33.978Z,100995.75
2023-01-01T07:40:00.567Z,100994.44
2023-01-01T07:42:27.165Z,100997.88
2023-01-01T07:44:53.708Z,101001.47
2023-01-01T07:47:25.289Z,100999.69
2023-01-01T07:49:52.964Z,101011.13
2023-01-01T07:52:19.864Z,101011.13
2023-01-01T07:54:46.351Z,101011.13
2023-01-01T07:57:12.970Z,101003.59
2023-01-01T07:59:39.562Z,101011.44
2023-01-01T08:02:07.337Z,101012.09
2023-01-01T08:04:33.888Z,101018.31
2023-01-01T08:07:00.360Z,101019.75
2023-01-01T08:09:26.834Z,101013.91
2023-01-01T08:11:53.692Z,101022.53
2023-01-01T08:14:20.255Z,101021.72
2023-01-01T08:16:46.774Z,101030.53
2023-01-01T08:19:13.243Z,101047.69
2023-01-01T08:21:39.704Z,101046.88
2023-01-01T08:24:06.381Z,101043.44
2023-01-01T08:26:35.698Z,101040.84
2023-01-01T08:29:04.367Z,101033.13
2023-01-01T08:31:31.029Z,101040.16
2023-01-01T08:33:57.549Z,101036.91
2023-01-01T08:36:24.568Z,101037.88
2023-01-01T08:38:51.083Z,101052.59
2023-01-01T08:41:17.536Z,101059.44
2023-01-01T08:43:44.034Z,101080.34
2023-01-01T08:46:10.759Z,101076.09
2023-01-01T08:48:37.359Z,101089.81
2023-01-01T08:51:04.060Z,101087.53
2023-01-01T08:53:32.078Z,101084.91
2023-01-01T08:56:01.489Z,101092.91
2023-01-01T08:58:28.214Z,101097.81
2023-01-01T09:00:54.959Z,101103.03
2023-01-01T09:03:21.998Z,101109.25
2023-01-01T09:05:48.683Z,101123.28
2023-01-01T09:08:15.679Z,101121.16
2023-01-01T09:10:46.067Z,101120.34
2023-01-01T09:13:14.606Z,101121.31
2023-01-01T09:15:44.977Z,101124.75
2023-01-01T09:18:12.588Z,101134.22
2023-01-01T09:20:39.652Z,101134.22
2023-01-01T09:23:07.392Z,101137.50
2023-01-01T09:25:34.974Z,101142.56
2023-01-01T09:28:03.919Z,101135.53
2023-01-01T09:30:30.819Z,101139.63
2023-01-01T09:32:58.288Z,101145.00
2023-01-01T09:35:24.891Z,101145.34
2023-01-01T09:37:51.326Z,101141.09
2023-01-01T09:40:51.586Z,101150.41
2023-01-01T09:43:28.815Z,101152.06
2023-01-01T09:46:02.557Z,101145.53
2023-01-01T09:48:30.960Z,101154.03
2023-01-01T09:51:00.215Z,101166.13
2023-01-01T09:53:46.943Z,101155.69
2023-01-01T09:56:18.946Z,101159.75
2023-01-01T09:58:45.472Z,101166.59
2023-01-01T10:01:21.062Z,101182.28
2023-01-01T10:04:18.149Z,101171.84
2023-01-01T10:06:55.042Z,101183.78
2023-01-01T10:09:46.411Z,101178.22
2023-01-01T10:12:25.224Z,101179.84
2023-01-01T10:15:04.001Z,101178.22
2023-01-01T10:17:37.184Z,101182.81
2023-01-01T10:20:18.462Z,101175.44
2023-01-01T10:22:49.247Z,101164.16
2023-01-01T10:25:28.599Z,101149.47
2023-01-01T10:28:04.810Z,101146.69
2023-01-01T10:30:31.337Z,101141.44
2023-01-01T10:32:59.110Z,101139.69
2023-01-01T10:35:36.276Z,101150.94
2023-01-01T10:38:04.772Z,101152.59
2023-01-01T10:40:32.169Z,101156.00
2023-01-01T10:43:00.886Z,101154.03
2023-01-01T10:45:35.198Z,101166.13
2023-01-01T10:48:15.431Z,101149.63
2023-01-01T10:50:54.153Z,101138.22
2023-01-01T10:53:28.479Z,101137.06
2023-01-01T10:56:11.996Z,101130.84
2023-01-01T10:58:56.800Z,101143.75
2023-01-01T11:01:31.579Z,101149.97
2023-01-01T11:03:58.232Z,101143.63
2023-01-01T11:06:33.827Z,101135.59
2023-01-01T11:09:22.796Z,101148.50
2023-01-01T11:12:11.909Z,101151.13
2023-01-01T11:14:57.877Z,101159.78
2023-01-01T11:17:29.689Z,101165.69
2023-01-01T11:20:01.743Z,101175.16
2023-01-01T11:22:44.066Z,101179.41
2023-01-01T11:25:21.504Z,101181.03
2023-01-01T11:27:50.133Z,101183.47
2023-01-01T11:30:28.443Z,101185.09
2023-01-01T11:33:04.958Z,101177.25
2023-01-01T11:35:36.859Z,101186.91
2023-01-01T11:38:04.157Z,101192.94
2023-01-01T11:40:38.700Z,101181.53
2023-01-01T11:43:06.945Z,101191.19
2023-01-01T11:45:38.952Z,101194.59
2023-01-01T11:48:16.800Z,101192.94
2023-01-01T11:50:55.336Z,101197.22
2023-01-01T11:53:24.669Z,101195.41
2023-01-01T11:56:03.400Z,101191.81
2023-01-01T11:58:38.023Z,101186.41
2023-01-01T12:01:16.434Z,101186.41
2023-01-01T12:03:53.803Z,101177.75
2023-01-01T12:06:30.575Z,101186.41
2023-01-01T12:09:10.853Z,101183.63
2023-01-01T12:11:49.669Z,101181.53
2023-01-01T12:14:58.313Z,101178.75
2023-01-01T12:17:32.081Z,101182.97
2023-01-01T12:20:40.315Z,101169.75
2023-01-01T12:23:09.857Z,101156.69
2023-01-01T12:25:40.874Z,101166.16
2023-01-01T12:28:27.611Z,101156.34
2023-01-01T12:31:19.988Z,101157.03
2023-01-01T12:34:04.884Z,101157.84
2023-01-01T12:36:45.402Z,101153.25
2023-01-01T12:39:45.843Z,101143.75
2023-01-01T12:42:34.263Z,101153.25
2023-01-01T12:45:41.349Z,101155.69
2023-01-01T12:48:32.440Z,101153.25
2023-01-01T12:51:17.694Z,101161.72
2023-01-01T12:54:03.109Z,101164.34
2023-01-01T12:56:56.578Z,101157.16
2023-01-01T12:59:35.665Z,101145.91
2023-01-01T13:02:11.312Z,101151.13
2023-01-01T13:04:39.770Z,101145.06
2023-01-01T13:07:11.487Z,101146.72
2023-01-01T13:09:39.701Z,101146.72
2023-01-01T13:12:16.988Z,101139.00
2023-01-01T13:14:46.242Z,101149.31
2023-01-01T13:17:27.816Z,101151.13
2023-01-01T13:20:16.350Z,101161.59
2023-01-01T13:22:44.204Z,101157.16
2023-01-01T13:25:16.569Z,101165.03
2023-01-01T13:27:55.712Z,101160.44
2023-01-01T13:30:43.464Z,101174.50
2023-01-01T13:33:26.781Z,101164.03
2023-01-01T13:36:09.090Z,101172.69
2023-01-01T13:38:55.155Z,101175.31
2023-01-01T13:41:39.852Z,101169.91
2023-01-01T13:44:07.386Z,101166.31
2023-01-01T13:46:33.839Z,101160.44
2023-01-01T13:49:06.248Z,101152.75
2023-01-01T13:52:23.205Z,101151.94
2023-01-01T13:55:26.116Z,101151.13
2023-01-01T13:58:11.231Z,101155.69
2023-01-01T14:00:53.327Z,101148.66
2023-01-01T14:03:20.002Z,101161.09
2023-01-01T14:05:53.713Z,101163.88
2023-01-01T14:08:32.393Z,101163.88
2023-01-01T14:11:00.796Z,101157.03
2023-01-01T14:13:30.340Z,101152.75
2023-01-01T14:15:56.928Z,101160.59
2023-01-01T14:18:33.124Z,101150.28
2023-01-01T14:21:00.355Z,101149.31
2023-01-01T14:23:34.446Z,101148.50
2023-01-01T14:26:06.390Z,101151.28
2023-01-01T14:28:35.051Z,101147.03
2023-01-01T14:31:10.768Z,101155.88
2023-01-01T14:33:38.788Z,101153.25
2023-01-01T14:36:16.003Z,101153.25
2023-01-01T14:38:45.008Z,101158.16
2023-01-01T14:41:22.888Z,101151.78
2023-01-01T14:43:51.996Z,101151.63
2023-01-01T14:46:22.321Z,101155.84
2023-01-01T14:48:58.367Z,101160.28
2023-01-01T14:51:30.617Z,101166.16
2023-01-01T14:54:03.113Z,101168.13
2023-01-01T14:56:37.786Z,101173.19
2023-01-01T14:59:06.679Z,101175.97
2023-01-01T15:01:33.397Z,101178.75
2023-01-01T15:04:02.958Z,101175.47
2023-01-01T15:06:30.788Z,101180.88
2023-01-01T15:08:57.948Z,101192.31
2023-01-01T15:11:29.077Z,101182.97
2023-01-01T15:14:02.807Z,101177.94
2023-01-01T15:16:33.399Z,101174.50
2023-01-01T15:19:19.433Z,101173.69
2023-01-01T15:21:46.306Z,101172.19
2023-01-01T15:24:23.726Z,101167.94
2023-01-01T15:26:52.483Z,101167.13
2023-01-01T15:29:41.377Z,101165.69
2023-01-01T15:32:10.579Z,101166.00
2023-01-01T15:34:53.647Z,101165.47
2023-01-01T15:37:57.184Z,101162.06
2023-01-01T15:40:24.691Z,101162.38
2023-01-01T15:42:57.146Z,101172.19
2023-01-01T15:45:41.353Z,101167.13
2023-01-01T15:48:10.820Z,101168.28
2023-01-01T15:50:49.308Z,101172.81
2023-01-01T15:53:23.450Z,101164.34
2023-01-01T15:55:54.679Z,101165.47
2023-01-01T15:58:54.048Z,101169.22
2023-01-01T16:01:27.624Z,101173.81
2023-01-01T16:04:09.684Z,101167.13
2023-01-01T16:06:45.909Z,101170.69
2023-01-01T16:09:16.385Z,101171.00
2023-01-01T16:11:43.523Z,101173.63
2023-01-01T16:14:10.049Z,101174.63
2023-01-01T16:16:38.528Z,101170.38
2023-01-01T16:19:06.419Z,101175.59
2023-01-01T16:21:33.712Z,101170.38
2023-01-01T16:24:00.373Z,101173.13
2023-01-01T16:26:27.425Z,101173.94
2023-01-01T16:28:53.919Z,101171.50
2023-01-01T16:31:25.238Z,101173.28
2023-01-01T16:33:57.557Z,101171.66
2023-01-01T16:36:27.274Z,101171.81
2023-01-01T16:38:53.943Z,101171.81
2023-01-01T16:41:20.448Z,101177.34
2023-01-01T16:43:47.906Z,101171.31
2023-01-01T16:46:15.351Z,101173.09
2023-01-01T16:48:42.233Z,101174.41
2023-01-01T16:51:18.107Z,101171.63
2023-01-01T16:53:44.864Z,101169.16
2023-01-01T16:56:13.444Z,101159.53
2023-01-01T16:58:49.393Z,101159.69
2023-01-01T17:01:18.027Z,101156.56
2023-01-01T17:03:44.617Z,101145.66
2023-01-01T17:06:11.089Z,101145.47
2023-01-01T17:08:38.435Z,101136.81
2023-01-01T17:11:13.797Z,101137.16
2023-01-01T17:13:41.257Z,101123.13
2023-01-01T17:16:08.756Z,101113.13
2023-01-01T17:21:22.273Z,101109.53
2023-01-01T17:23:48.889Z,101111.34
2023-01-01T17:26:21.030Z,101108.72
2023-01-01T17:28:49.130Z,101105.59
2023-01-01T17:31:20.103Z,101108.03
2023-01-01T17:33:47.187Z,101096.94
2023-01-01T17:36:13.659Z,101099.03
2023-01-01T17:38:40.273Z,101095.78
2023-01-01T17:41:15.463Z,101090.06
2023-01-01T17:43:44.045Z,101092.66
2023-01-01T17:46:16.480Z,101089.91
2023-01-01T17:48:44.140Z,101086.50
2023-01-01T17:51:12.265Z,101080.72
2023-01-01T17:53:39.860Z,101079.91
2023-01-01T17:56:07.208Z,101073.22
2023-01-01T17:58:35.678Z,101079.25
2023-01-01T18:01:26.182Z,101070.63
2023-01-01T18:03:55.678Z,101069.63
2023-01-01T18:06:22.786Z,101076.78
2023-01-01T18:08:49.425Z,101074.34
2023-01-01T18:11:15.983Z,101070.75
2023-01-01T18:13:42.461Z,101076.13
2023-01-01T18:16:09.729Z,101070.91
2023-01-01T18:18:38.141Z,101062.09
2023-01-01T18:21:11.806Z,101061.28
2023-01-01T18:23:39.983Z,101059.66
2023-01-01T18:26:09.450Z,101053.78
2023-01-01T18:28:36.155Z,101048.69
2023-01-01T18:31:06.435Z,101042.03
2023-01-01T18:33:34.674Z,101036.16
2023-01-01T18:36:10.543Z,101054.09
2023-01-01T18:38:37.464Z,101046.13
2023-01-01T18:41:24.965Z,101039.28
2023-01-01T18:43:51.533Z,101043.00
2023-01-01T18:46:19.726Z,101038.78
2023-01-01T18:48:46.255Z,101047.41
2023-01-01T18:51:17.291Z,101051.19
2023-01-01T18:53:43.823Z,101040.06
2023-01-01T18:56:14.637Z,101040.88
2023-01-01T18:58:45.234Z,101040.88
2023-01-01T19:01:20.539Z,101042.66
2023-01-01T19:04:00.685Z,101042.03
2023-01-01T19:06:28.500Z,101040.38
2023-01-01T19:09:20.068Z,101032.69
2023-01-01T19:11:48.336Z,101027.00
2023-01-01T19:14:21.092Z,101026.34
2023-01-01T19:16:49.670Z,101022.94
2023-01-01T19:19:16.688Z,101023.91
2023-01-01T19:21:49.451Z,101023.09
2023-01-01T19:24:24.206Z,101004.66
2023-01-01T19:27:06.854Z,100997.00
2023-01-01T19:29:38.578Z,100992.72
2023-01-01T19:32:05.145Z,100990.13
2023-01-01T19:34:35.338Z,100975.59
2023-01-01T19:37:01.834Z,100970.69
2023-01-01T19:39:29.085Z,100968.91
2023-01-01T19:41:56.809Z,100959.44
2023-01-01T19:44:25.369Z,100963.69
2023-01-01T19:46:52.176Z,100950.66
2023-01-01T19:49:18.659Z,100949.00
2023-01-01T19:51:45.167Z,100942.16
2023-01-01T19:54:11.815Z,100934.47
2023-01-01T19:56:38.382Z,100929.25
2023-01-01T19:59:04.907Z,100917.19
2023-01-01T20:01:31.484Z,100906.94
2023-01-01T20:03:58.955Z,100907.06
2023-01-01T20:06:26.879Z,100900.03
2023-01-01T20:08:53.748Z,100895.81
2023-01-01T20:11:21.092Z,100897.44
2023-01-01T20:13:47.685Z,100883.75
2023-01-01T20:16:14.417Z,100870.69
2023-01-01T20:18:40.925Z,100859.44
2023-01-01T20:21:27.080Z,100858.63
2023-01-01T20:23:55.301Z,100863.84
2023-01-01T20:26:23.686Z,100859.63
2023-01-01T20:29:09.064Z,100855.34
2023-01-01T20:31:35.866Z,100852.75
2023-01-01T20:34:02.388Z,100839.69
2023-01-01T20:36:47.546Z,100846.69
2023-01-01T20:39:14.044Z,100848.50
2023-01-01T20:41:40.539Z,100854.53
2023-01-01T20:44:07.037Z,100861.53
2023-01-01T20:46:33.557Z,100855.03
2023-01-01T20:49:00.113Z,100863.00
2023-01-01T20:51:26.883Z,100856.16
2023-01-01T20:53:53.476Z,100846.53
2023-01-01T20:56:20.029Z,100846.53
2023-01-01T20:58:50.222Z,100835.28
2023-01-01T21:01:19.968Z,100834.47
2023-01-01T21:03:46.785Z,100837.91
2023-01-01T21:06:16.038Z,100833.03
2023-01-01T21:08:47.847Z,100828.78
2023-01-01T21:11:15.121Z,100826.19
2023-01-01T21:13:44.180Z,100813.13
2023-01-01T21:16:20.822Z,100825.19
2023-01-01T21:18:48.084Z,100820.97
2023-01-01T21:21:25.414Z,100813.13
2023-01-01T21:23:53.693Z,100821.91
2023-01-01T21:26:26.149Z,100821.09
2023-01-01T21:28:52.948Z,100814.09
2023-01-01T21:31:21.583Z,100807.06
2023-01-01T21:33:48.284Z,100796.63
2023-01-01T21:36:22.827Z,100799.41
2023-01-01T21:38:51.747Z,100796.47
2023-01-01T21:41:23.514Z,100787.84
2023-01-01T21:43:54.493Z,100793.22
2023-01-01T21:46:39.440Z,100792.75
2023-01-01T21:49:21.244Z,100777.91
2023-01-01T21:51:56.125Z,100784.25
2023-01-01T21:54:36.365Z,100771.72
2023-01-01T21:57:14.875Z,100775.44
2023-01-01T21:59:47.635Z,100775.94
2023-01-01T22:02:14.335Z,100769.09
2023-01-01T22:04:42.707Z,100772.66
2023-01-01T22:10:31.146Z,100773.97
2023-01-01T22:13:00.267Z,100774.78
2023-01-01T22:15:41.214Z,100769.56
2023-01-01T22:18:28.020Z,100771.88
2023-01-01T22:20:56.155Z,100767.63
2023-01-01T22:23:31.744Z,100769.25
2023-01-01T22:25:58.257Z,100775.47
2023-01-01T22:28:30.339Z,100771.88
2023-01-01T22:31:01.907Z,100773.50
2023-01-01T22:33:41.686Z,100757.84
2023-01-01T22:36:26.624Z,100762.25
2023-01-01T22:38:55.942Z,100760.63
2023-01-01T22:41:22.498Z,100756.22
2023-01-01T22:43:49.759Z,100753.59
2023-01-01T22:46:25.368Z,100752.44
2023-01-01T22:48:57.724Z,100756.22
2023-01-01T22:51:27.292Z,100747.41
2023-01-01T22:53:53.943Z,100748.22
2023-01-01T22:56:21.377Z,100744.78
2023-01-01T22:58:53.099Z,100742.19
2023-01-01T23:01:23.231Z,100745.78
2023-01-01T23:03:49.905Z,100732.75
2023-01-01T23:06:17.164Z,100718.72
2023-01-01T23:08:43.704Z,100729.16
2023-01-01T23:11:10.305Z,100724.09
2023-01-01T23:13:55.810Z,100730.13
2023-01-01T23:16:22.479Z,100741.38
2023-01-01T23:18:48.993Z,100733.56
2023-01-01T23:21:24.395Z,100726.72
2023-01-01T23:23:55.857Z,100726.84
2023-01-01T23:26:22.808Z,100730.31
2023-01-01T23:28:49.491Z,100732.25
2023-01-01T23:31:22.789Z,100729.63
2023-01-01T23:33:51.126Z,100726.72
2023-01-01T23:36:17.726Z,100716.41
2023-01-01T23:38:44.324Z,100715.47
2023-01-01T23:41:10.824Z,100709.44
2023-01-01T23:43:43.135Z,100724.91
2023-01-01T23:46:11.704Z,100720.81
2023-01-01T23:48:38.630Z,100726.84
2023-01-01T23:51:05.366Z,100729.47
2023-01-01T23:53:32.104Z,100720.69
2023-01-01T23:55:58.623Z,100728.66
2023-01-01T23:58:25.079Z,100717.25
